createdAt,value
2019-05-20T00:00:02.306Z,15.83
2019-05-20T00:02:30.706Z,17.80
2019-05-20T00:04:59.138Z,15.40
2019-05-20T00:07:27.557Z,16.17
2019-05-20T00:09:56.022Z,15.43
2019-05-20T00:12:24.405Z,15.97
2019-05-20T00:14:52.806Z,15.67
2019-05-20T00:17:21.246Z,13.93
2019-05-20T00:19:50.791Z,14.67
2019-05-20T00:22:19.434Z,14.50
2019-05-20T00:24:47.832Z,15.27
2019-05-20T00:27:16.241Z,14.30
2019-05-20T00:29:44.709Z,14.50
2019-05-20T00:32:13.164Z,15.40
2019-05-20T00:34:41.605Z,15.00
2019-05-20T00:37:10.031Z,14.43
2019-05-20T00:39:38.436Z,13.13
2019-05-20T00:42:06.848Z,14.50
2019-05-20T00:44:35.247Z,13.80
2019-05-20T00:47:03.705Z,14.40
2019-05-20T00:49:32.096Z,15.00
2019-05-20T00:52:00.637Z,15.77
2019-05-20T00:54:29.119Z,13.40
2019-05-20T00:56:57.515Z,14.03
2019-05-20T00:59:25.933Z,14.20
2019-05-20T01:01:54.388Z,15.23
2019-05-20T01:04:22.816Z,12.87
2019-05-20T01:06:51.225Z,13.67
2019-05-20T01:09:19.639Z,14.00
2019-05-20T01:11:48.058Z,16.97
2019-05-20T01:14:16.470Z,16.47
2019-05-20T01:16:44.875Z,15.80
2019-05-20T01:19:13.306Z,15.47
2019-05-20T01:21:41.733Z,15.63
2019-05-20T01:24:10.129Z,14.20
2019-05-20T01:26:38.654Z,15.53
2019-05-20T01:29:07.011Z,19.37
2019-05-20T01:31:35.434Z,20.60
2019-05-20T01:34:03.905Z,19.63
2019-05-20T01:36:32.383Z,21.83
2019-05-20T01:39:00.811Z,22.33
2019-05-20T01:41:29.208Z,21.07
2019-05-20T01:43:57.693Z,19.77
2019-05-20T01:46:26.127Z,21.47
2019-05-20T01:48:54.718Z,20.80
2019-05-20T01:51:23.144Z,19.43
2019-05-20T01:53:51.643Z,18.23
2019-05-20T01:56:20.193Z,27.00
2019-05-20T01:58:48.614Z,23.97
2019-05-20T02:01:17.089Z,32.00
2019-05-20T02:03:45.518Z,37.73
2019-05-20T02:06:13.942Z,40.27
2019-05-20T02:08:42.507Z,38.10
2019-05-20T02:11:10.934Z,40.10
2019-05-20T02:13:52.730Z,47.70
2019-05-20T02:16:29.121Z,45.50
2019-05-20T02:18:57.621Z,46.60
2019-05-20T02:21:26.043Z,46.37
2019-05-20T02:23:54.468Z,47.90
2019-05-20T02:26:23.143Z,46.27
2019-05-20T02:28:51.594Z,47.13
2019-05-20T02:31:20.031Z,48.60
2019-05-20T02:33:52.262Z,49.23
2019-05-20T02:36:18.738Z,48.10
2019-05-20T02:38:47.933Z,48.70
2019-05-20T02:41:16.334Z,50.20
2019-05-20T02:43:44.835Z,50.50
2019-05-20T02:46:13.300Z,50.10
2019-05-20T02:48:41.795Z,52.77
2019-05-20T02:51:10.305Z,54.20
2019-05-20T02:53:38.741Z,58.33
2019-05-20T02:56:07.216Z,61.90
2019-05-20T02:58:35.598Z,56.73
2019-05-20T03:01:04.221Z,59.60
2019-05-20T03:03:32.638Z,56.43
2019-05-20T03:06:01.096Z,57.80
2019-05-20T03:08:29.583Z,56.07
2019-05-20T03:10:57.999Z,54.93
2019-05-20T03:13:26.400Z,53.07
2019-05-20T03:15:54.817Z,51.60
2019-05-20T03:18:23.242Z,54.87
2019-05-20T03:20:51.665Z,53.77
2019-05-20T03:23:20.263Z,53.87
2019-05-20T03:25:50.512Z,52.60
2019-05-20T03:28:19.000Z,53.30
2019-05-20T03:30:47.406Z,56.67
2019-05-20T03:33:15.805Z,62.73
2019-05-20T03:35:44.230Z,59.03
2019-05-20T03:38:12.657Z,63.90
2019-05-20T03:40:41.143Z,61.67
2019-05-20T03:43:09.547Z,64.67
2019-05-20T03:45:37.973Z,63.03
2019-05-20T03:48:06.451Z,62.00
2019-05-20T03:50:35.041Z,61.83
2019-05-20T03:53:03.546Z,62.03
2019-05-20T03:55:32.094Z,62.30
2019-05-20T03:58:00.506Z,59.03
2019-05-20T04:00:43.520Z,61.53
2019-05-20T04:03:12.686Z,56.23
2019-05-20T04:05:41.421Z,54.13
2019-05-20T04:08:09.893Z,58.00
2019-05-20T04:10:38.545Z,54.37
2019-05-20T04:13:07.022Z,56.53
2019-05-20T04:15:35.510Z,55.57
2019-05-20T04:18:04.065Z,54.67
2019-05-20T04:20:32.557Z,57.03
2019-05-20T04:23:01.033Z,53.33
2019-05-20T04:25:29.535Z,49.17
2019-05-20T04:27:58.017Z,45.67
2019-05-20T04:30:26.490Z,43.63
2019-05-20T04:32:54.924Z,44.50
2019-05-20T04:35:23.703Z,44.80
2019-05-20T04:37:52.299Z,43.43
2019-05-20T04:40:20.755Z,44.87
2019-05-20T04:42:49.176Z,43.30
2019-05-20T04:45:17.725Z,44.80
2019-05-20T04:47:46.133Z,43.90
2019-05-20T04:50:14.697Z,45.00
2019-05-20T04:52:43.280Z,45.03
2019-05-20T04:55:11.967Z,43.70
2019-05-20T04:57:40.436Z,42.20
2019-05-20T05:00:09.848Z,44.57
2019-05-20T05:02:38.357Z,41.93
2019-05-20T05:05:08.306Z,41.90
2019-05-20T05:07:36.788Z,43.77
2019-05-20T05:10:08.278Z,46.90
2019-05-20T05:12:36.805Z,48.00
2019-05-20T05:15:08.284Z,47.47
2019-05-20T05:17:37.061Z,48.33
2019-05-20T05:20:06.739Z,48.23
2019-05-20T05:22:35.284Z,46.43
2019-05-20T05:25:05.353Z,43.73
2019-05-20T05:27:33.757Z,48.90
2019-05-20T05:30:02.314Z,51.60
2019-05-20T05:32:43.465Z,48.03
2019-05-20T05:35:14.808Z,50.30
2019-05-20T05:37:43.827Z,49.83
2019-05-20T05:40:12.978Z,47.30
2019-05-20T05:42:41.417Z,46.07
2019-05-20T05:45:10.436Z,45.83
2019-05-20T05:47:38.947Z,46.77
2019-05-20T05:50:08.483Z,48.63
2019-05-20T05:52:37.001Z,44.80
2019-05-20T05:55:06.375Z,44.37
2019-05-20T05:57:34.756Z,41.23
2019-05-20T06:00:05.350Z,43.97
2019-05-20T06:02:33.786Z,43.43
2019-05-20T06:05:02.153Z,42.13
2019-05-20T06:07:30.596Z,44.80
2019-05-20T06:09:59.097Z,45.20
2019-05-20T06:12:27.594Z,55.23
2019-05-20T06:14:56.035Z,54.30
2019-05-20T06:17:24.498Z,53.50
2019-05-20T06:19:52.926Z,55.43
2019-05-20T06:22:21.342Z,55.40
2019-05-20T06:24:49.882Z,56.03
2019-05-20T06:27:18.319Z,57.73
2019-05-20T06:29:46.768Z,64.03
2019-05-20T06:32:15.633Z,66.03
2019-05-20T06:34:44.250Z,72.23
2019-05-20T06:37:14.466Z,70.57
2019-05-20T06:39:42.926Z,66.43
2019-05-20T06:42:11.408Z,68.60
2019-05-20T06:44:52.221Z,67.87
2019-05-20T06:47:10.000Z,62.37
2019-05-20T06:49:38.410Z,60.40
2019-05-20T06:52:06.844Z,58.53
2019-05-20T06:54:35.304Z,58.43
2019-05-20T06:57:03.777Z,58.70
2019-05-20T06:59:32.163Z,58.03
2019-05-20T07:02:00.580Z,60.80
2019-05-20T07:04:29.070Z,60.07
2019-05-20T07:06:57.614Z,62.60
2019-05-20T07:09:26.046Z,59.07
2019-05-20T07:11:54.439Z,57.50
2019-05-20T07:14:22.864Z,55.23
2019-05-20T07:16:51.284Z,54.50
2019-05-20T07:19:19.696Z,56.20
2019-05-20T07:21:48.155Z,54.07
2019-05-20T07:24:16.590Z,49.40
2019-05-20T07:26:45.110Z,50.73
2019-05-20T07:29:13.544Z,51.50
2019-05-20T07:31:42.054Z,56.40
2019-05-20T07:34:10.530Z,52.90
2019-05-20T07:36:38.969Z,49.03
2019-05-20T07:39:07.939Z,46.40
2019-05-20T07:41:36.419Z,44.73
2019-05-20T07:44:05.794Z,38.00
2019-05-20T07:46:35.342Z,37.67
2019-05-20T07:49:04.290Z,36.40
2019-05-20T07:51:33.419Z,37.47
2019-05-20T07:54:02.921Z,37.73
2019-05-20T07:56:34.441Z,39.00
2019-05-20T07:59:05.917Z,34.50
2019-05-20T08:01:34.394Z,37.73
2019-05-20T08:04:02.875Z,34.87
2019-05-20T08:06:31.292Z,37.43
2019-05-20T08:08:59.907Z,33.40
2019-05-20T08:11:28.388Z,35.20
2019-05-20T08:13:56.893Z,41.13
2019-05-20T08:16:25.463Z,41.53
2019-05-20T08:18:53.884Z,45.23
2019-05-20T08:21:22.466Z,44.80
2019-05-20T08:23:50.938Z,42.80
2019-05-20T08:26:19.425Z,34.57
2019-05-20T08:28:47.865Z,32.17
2019-05-20T08:31:16.365Z,29.10
2019-05-20T08:33:44.794Z,29.23
2019-05-20T08:36:13.357Z,27.20
2019-05-20T08:38:41.821Z,28.47
2019-05-20T08:41:10.286Z,27.90
2019-05-20T08:43:38.736Z,27.70
2019-05-20T08:46:07.196Z,29.87
2019-05-20T08:48:35.710Z,26.87
2019-05-20T08:51:04.169Z,29.13
2019-05-20T08:53:32.596Z,30.50
2019-05-20T08:56:01.041Z,34.27
2019-05-20T08:58:29.464Z,36.67
2019-05-20T09:00:57.944Z,33.77
2019-05-20T09:03:30.142Z,34.37
2019-05-20T09:05:56.646Z,32.90
2019-05-20T09:08:25.072Z,30.40
2019-05-20T09:10:53.588Z,30.40
2019-05-20T09:13:22.031Z,30.97
2019-05-20T09:15:50.466Z,29.20
2019-05-20T09:18:18.917Z,29.77
2019-05-20T09:20:47.379Z,29.13
2019-05-20T09:23:16.357Z,28.73
2019-05-20T09:25:44.846Z,30.80
2019-05-20T09:28:13.275Z,29.40
2019-05-20T09:30:42.128Z,32.07
2019-05-20T09:33:10.766Z,30.57
2019-05-20T09:35:39.333Z,29.20
2019-05-20T09:38:19.413Z,28.70
2019-05-20T09:40:40.124Z,29.93
2019-05-20T09:43:08.747Z,29.67
2019-05-20T09:45:37.303Z,31.40
2019-05-20T09:48:06.143Z,28.90
2019-05-20T09:50:34.723Z,29.77
2019-05-20T09:53:06.955Z,29.80
2019-05-20T09:55:33.636Z,27.23
2019-05-20T09:58:02.231Z,28.57
2019-05-20T10:00:31.334Z,27.10
2019-05-20T10:02:59.835Z,30.27
2019-05-20T10:05:28.455Z,29.43
2019-05-20T10:07:57.023Z,30.33
2019-05-20T10:10:25.579Z,28.90
2019-05-20T10:12:54.091Z,29.87
2019-05-20T10:15:22.702Z,29.30
2019-05-20T10:17:51.307Z,28.53
2019-05-20T10:20:19.939Z,29.03
2019-05-20T10:22:48.507Z,28.67
2019-05-20T10:25:17.135Z,31.97
2019-05-20T10:27:45.630Z,31.07
2019-05-20T10:30:14.915Z,31.90
2019-05-20T10:32:43.455Z,30.50
2019-05-20T10:35:14.703Z,32.80
2019-05-20T10:37:43.150Z,33.37
2019-05-20T10:40:12.026Z,31.87
2019-05-20T10:42:40.446Z,32.47
2019-05-20T10:45:09.065Z,30.60
2019-05-20T10:47:37.616Z,33.20
2019-05-20T10:50:07.344Z,33.70
2019-05-20T10:52:35.771Z,30.73
2019-05-20T10:55:06.717Z,34.57
2019-05-20T10:57:35.181Z,35.90
2019-05-20T11:00:04.856Z,33.67
2019-05-20T11:02:33.330Z,36.87
2019-05-20T11:05:01.813Z,35.30
2019-05-20T11:07:30.224Z,36.70
2019-05-20T11:09:58.703Z,35.50
2019-05-20T11:12:27.200Z,36.17
2019-05-20T11:14:55.615Z,35.30
2019-05-20T11:17:24.027Z,36.77
2019-05-20T11:19:52.509Z,34.00
2019-05-20T11:22:20.942Z,35.53
2019-05-20T11:24:49.331Z,33.97
2019-05-20T11:27:17.821Z,34.70
2019-05-20T11:29:46.282Z,35.50
2019-05-20T11:32:14.806Z,32.50
2019-05-20T11:34:43.198Z,36.80
2019-05-20T11:37:11.630Z,34.33
2019-05-20T11:39:40.070Z,34.80
2019-05-20T11:42:08.503Z,35.00
2019-05-20T11:44:37.052Z,34.80
2019-05-20T11:47:05.457Z,35.17
2019-05-20T11:49:33.887Z,37.80
2019-05-20T11:52:02.400Z,37.73
2019-05-20T11:54:30.936Z,38.90
2019-05-20T11:56:59.344Z,37.60
2019-05-20T11:59:27.772Z,39.00
2019-05-20T12:01:56.177Z,38.17
2019-05-20T12:04:24.683Z,35.90
2019-05-20T12:06:53.295Z,36.00
2019-05-20T12:09:21.769Z,35.67
2019-05-20T12:11:50.197Z,36.97
2019-05-20T12:14:18.625Z,37.63
2019-05-20T12:16:47.043Z,35.73
2019-05-20T12:19:15.447Z,38.93
2019-05-20T12:21:43.916Z,37.27
2019-05-20T12:24:12.304Z,38.50
2019-05-20T12:26:40.798Z,38.00
2019-05-20T12:29:09.269Z,37.67
2019-05-20T12:31:37.684Z,36.73
2019-05-20T12:34:06.125Z,38.77
2019-05-20T12:36:34.585Z,39.37
2019-05-20T12:39:03.103Z,39.10
2019-05-20T12:41:31.672Z,37.23
2019-05-20T12:44:10.906Z,41.23
2019-05-20T12:46:30.199Z,39.23
2019-05-20T12:48:58.892Z,38.30
2019-05-20T12:51:27.305Z,39.40
2019-05-20T12:53:55.729Z,38.23
2019-05-20T12:56:24.132Z,38.00
2019-05-20T12:58:52.566Z,38.07
2019-05-20T13:01:21.033Z,37.40
2019-05-20T13:03:49.508Z,38.50
2019-05-20T13:06:17.994Z,39.07
2019-05-20T13:08:46.393Z,38.53
2019-05-20T13:11:14.861Z,37.73
2019-05-20T13:13:43.371Z,40.80
2019-05-20T13:16:11.813Z,38.33
2019-05-20T13:18:54.867Z,39.10
2019-05-20T13:21:10.423Z,39.33
2019-05-20T13:23:38.919Z,39.80
2019-05-20T13:26:07.390Z,40.70
2019-05-20T13:28:35.880Z,40.67
2019-05-20T13:31:04.290Z,39.27
2019-05-20T13:33:32.710Z,40.60
2019-05-20T13:36:01.149Z,40.17
2019-05-20T13:38:29.688Z,38.20
2019-05-20T13:40:58.123Z,41.27
2019-05-20T13:43:29.786Z,41.47
2019-05-20T13:45:58.360Z,40.40
2019-05-20T13:48:26.989Z,41.57
2019-05-20T13:50:55.511Z,39.03
2019-05-20T13:53:23.942Z,41.00
2019-05-20T13:55:52.374Z,41.40
2019-05-20T13:58:20.929Z,40.83
2019-05-20T14:00:49.408Z,42.30
2019-05-20T14:03:17.898Z,40.23
2019-05-20T14:05:46.339Z,39.67
2019-05-20T14:08:14.875Z,39.27
2019-05-20T14:10:43.453Z,40.43
2019-05-20T14:13:12.010Z,40.70
2019-05-20T14:15:40.529Z,42.63
2019-05-20T14:18:08.917Z,39.10
2019-05-20T14:20:37.323Z,40.30
2019-05-20T14:23:05.859Z,40.23
2019-05-20T14:25:34.272Z,41.47
2019-05-20T14:28:02.709Z,40.00
2019-05-20T14:30:31.205Z,40.20
2019-05-20T14:32:59.711Z,39.43
2019-05-20T14:35:28.214Z,39.63
2019-05-20T14:37:56.687Z,41.37
2019-05-20T14:40:25.049Z,39.73
2019-05-20T14:42:56.277Z,40.53
2019-05-20T14:45:24.703Z,41.17
2019-05-20T14:47:53.177Z,41.97
2019-05-20T14:50:21.677Z,41.93
2019-05-20T14:52:50.151Z,40.70
2019-05-20T14:55:18.619Z,41.30
2019-05-20T14:57:47.080Z,40.80
2019-05-20T15:00:15.862Z,40.10
2019-05-20T15:02:44.247Z,40.50
2019-05-20T15:05:13.223Z,41.23
2019-05-20T15:07:41.646Z,44.17
2019-05-20T15:10:11.082Z,42.40
2019-05-20T15:12:39.728Z,40.67
2019-05-20T15:15:09.707Z,43.50
2019-05-20T15:17:38.091Z,42.80
2019-05-20T15:20:07.643Z,40.73
2019-05-20T15:22:36.224Z,39.70
2019-05-20T15:25:06.970Z,42.00
2019-05-20T15:27:35.368Z,39.70
2019-05-20T15:30:05.269Z,40.60
2019-05-20T15:32:33.740Z,41.63
2019-05-20T15:35:02.269Z,42.20
2019-05-20T15:37:30.660Z,41.63
2019-05-20T15:39:59.182Z,40.17
2019-05-20T15:42:27.634Z,39.70
2019-05-20T15:44:56.105Z,41.53
2019-05-20T15:47:24.592Z,40.57
2019-05-20T15:49:53.137Z,41.50
2019-05-20T15:52:21.651Z,41.00
2019-05-20T15:54:50.040Z,40.20
2019-05-20T15:57:18.472Z,40.57
2019-05-20T15:59:46.932Z,40.07
2019-05-20T16:02:15.481Z,40.30
2019-05-20T16:04:43.989Z,40.87
2019-05-20T16:07:12.494Z,40.57
2019-05-20T16:09:40.947Z,37.77
2019-05-20T16:12:09.380Z,38.80
2019-05-20T16:14:37.903Z,37.90
2019-05-20T16:17:06.316Z,37.77
2019-05-20T16:19:34.732Z,38.30
2019-05-20T16:22:03.221Z,38.50
2019-05-20T16:24:31.688Z,35.90
2019-05-20T16:27:00.197Z,37.30
2019-05-20T16:29:28.706Z,37.17
2019-05-20T16:31:59.975Z,37.17
2019-05-20T16:34:28.440Z,36.80
2019-05-20T16:36:56.868Z,33.87
2019-05-20T16:39:25.290Z,35.70
2019-05-20T16:41:53.694Z,35.17
2019-05-20T16:44:22.135Z,37.43
2019-05-20T16:46:50.761Z,34.63
2019-05-20T16:49:19.296Z,34.13
2019-05-20T16:51:47.803Z,34.10
2019-05-20T16:54:16.241Z,37.37
2019-05-20T16:56:44.646Z,34.00
2019-05-20T16:59:13.136Z,36.30
2019-05-20T17:01:46.391Z,33.80
2019-05-20T17:04:11.740Z,34.37
2019-05-20T17:06:40.242Z,35.10
2019-05-20T17:09:08.741Z,33.50
2019-05-20T17:11:37.171Z,35.57
2019-05-20T17:14:05.741Z,37.43
2019-05-20T17:16:34.144Z,34.67
2019-05-20T17:19:02.654Z,36.73
2019-05-20T17:21:31.059Z,36.73
2019-05-20T17:23:59.503Z,35.10
2019-05-20T17:26:32.425Z,34.30
2019-05-20T17:29:00.794Z,34.30
2019-05-20T17:31:30.944Z,34.70
2019-05-20T17:33:59.637Z,33.10
2019-05-20T17:36:28.149Z,34.37
2019-05-20T17:38:56.641Z,33.43
2019-05-20T17:41:25.257Z,33.20
2019-05-20T17:43:53.723Z,32.67
2019-05-20T17:46:22.377Z,33.23
2019-05-20T17:48:50.803Z,33.50
2019-05-20T17:51:19.259Z,33.33
2019-05-20T17:53:47.694Z,33.80
2019-05-20T17:56:16.304Z,34.20
2019-05-20T17:58:44.738Z,32.17
2019-05-20T18:01:15.879Z,33.60
2019-05-20T18:03:43.380Z,30.87
2019-05-20T18:06:11.920Z,32.07
2019-05-20T18:08:41.978Z,33.23
2019-05-20T18:11:10.500Z,35.83
2019-05-20T18:13:38.907Z,32.70
2019-05-20T18:16:07.330Z,32.80
2019-05-20T18:18:35.760Z,31.50
2019-05-20T18:21:04.247Z,31.17
2019-05-20T18:23:32.659Z,30.33
2019-05-20T18:26:03.491Z,29.63
2019-05-20T18:28:31.242Z,31.40
2019-05-20T18:30:59.677Z,32.83
2019-05-20T18:33:28.077Z,30.30
2019-05-20T18:35:56.578Z,29.60
2019-05-20T18:38:24.991Z,29.77
2019-05-20T18:40:53.511Z,28.47
2019-05-20T18:43:22.009Z,30.67
2019-05-20T18:45:50.528Z,28.80
2019-05-20T18:48:19.037Z,29.63
2019-05-20T18:50:47.534Z,29.43
2019-05-20T18:53:15.999Z,29.70
2019-05-20T18:55:44.534Z,29.30
2019-05-20T18:58:13.038Z,30.03
2019-05-20T19:00:41.465Z,28.60
2019-05-20T19:03:09.908Z,29.60
2019-05-20T19:05:38.403Z,29.30
2019-05-20T19:08:06.826Z,28.60
2019-05-20T19:10:35.389Z,30.77
2019-05-20T19:13:04.226Z,30.70
2019-05-20T19:15:32.783Z,28.50
2019-05-20T19:18:01.204Z,29.47
2019-05-20T19:20:29.692Z,28.77
2019-05-20T19:22:58.173Z,29.70
2019-05-20T19:25:37.471Z,30.50
2019-05-20T19:27:56.959Z,31.87
2019-05-20T19:30:25.458Z,30.03
2019-05-20T19:32:53.865Z,31.50
2019-05-20T19:35:22.356Z,31.60
2019-05-20T19:37:50.859Z,33.53
2019-05-20T19:40:19.456Z,32.57
2019-05-20T19:42:47.930Z,32.13
2019-05-20T19:45:16.515Z,33.00
2019-05-20T19:47:44.939Z,33.57
2019-05-20T19:50:13.638Z,32.13
2019-05-20T19:52:42.164Z,31.50
2019-05-20T19:55:10.765Z,35.07
2019-05-20T19:57:39.316Z,33.23
2019-05-20T20:00:08.793Z,34.00
2019-05-20T20:02:37.329Z,40.17
2019-05-20T20:05:07.583Z,34.20
2019-05-20T20:07:36.078Z,34.17
2019-05-20T20:10:05.349Z,37.70
2019-05-20T20:12:33.892Z,34.27
2019-05-20T20:15:02.330Z,35.20
2019-05-20T20:17:30.810Z,36.80
2019-05-20T20:19:59.263Z,34.00
2019-05-20T20:22:27.741Z,35.33
2019-05-20T20:24:56.138Z,33.97
2019-05-20T20:27:24.622Z,33.90
2019-05-20T20:29:53.125Z,36.07
2019-05-20T20:32:36.663Z,34.20
2019-05-20T20:34:51.764Z,33.77
2019-05-20T20:37:20.184Z,33.63
2019-05-20T20:39:49.887Z,35.47
2019-05-20T20:42:18.303Z,34.80
2019-05-20T20:44:46.808Z,34.90
2019-05-20T20:47:15.294Z,34.80
2019-05-20T20:49:43.807Z,35.60
2019-05-20T20:52:12.227Z,34.53
2019-05-20T20:54:40.703Z,35.73
2019-05-20T20:57:09.150Z,37.33
2019-05-20T20:59:37.641Z,37.13
2019-05-20T21:02:06.115Z,38.47
2019-05-20T21:04:37.340Z,39.73
2019-05-20T21:07:05.914Z,38.87
2019-05-20T21:09:34.398Z,37.30
2019-05-20T21:12:02.906Z,39.90
2019-05-20T21:14:31.362Z,41.87
2019-05-20T21:16:59.854Z,42.53
2019-05-20T21:19:28.254Z,42.77
2019-05-20T21:21:56.722Z,41.00
2019-05-20T21:24:25.155Z,40.00
2019-05-20T21:26:53.571Z,39.77
2019-05-20T21:29:22.052Z,40.07
2019-05-20T21:31:50.566Z,42.47
2019-05-20T21:34:19.036Z,42.30
2019-05-20T21:36:48.320Z,43.20
2019-05-20T21:39:16.963Z,41.63
2019-05-20T21:41:45.435Z,41.03
2019-05-20T21:44:13.842Z,40.70
2019-05-20T21:47:09.640Z,41.57
2019-05-20T21:49:38.056Z,41.67
2019-05-20T21:52:06.602Z,37.93
2019-05-20T21:54:35.038Z,37.40
2019-05-20T21:57:03.443Z,39.33
2019-05-20T21:59:31.863Z,35.00
2019-05-20T22:02:00.410Z,35.30
2019-05-20T22:04:28.917Z,33.27
2019-05-20T22:06:57.467Z,33.33
2019-05-20T22:09:26.713Z,32.10
2019-05-20T22:11:55.196Z,31.80
2019-05-20T22:14:23.625Z,30.90
2019-05-20T22:16:52.059Z,28.03
2019-05-20T22:19:20.449Z,28.73
2019-05-20T22:21:53.332Z,27.57
2019-05-20T22:24:21.754Z,28.43
2019-05-20T22:26:50.169Z,28.40
2019-05-20T22:29:18.604Z,27.37
2019-05-20T22:31:47.012Z,29.20
2019-05-20T22:34:15.514Z,25.97
2019-05-20T22:36:43.913Z,28.50
2019-05-20T22:39:12.365Z,28.50
2019-05-20T22:41:40.790Z,27.07
2019-05-20T22:44:09.204Z,29.27
2019-05-20T22:46:37.629Z,30.03
2019-05-20T22:49:06.114Z,28.53
2019-05-20T22:51:34.630Z,29.63
2019-05-20T22:54:03.106Z,30.20
2019-05-20T22:56:31.592Z,29.93
2019-05-20T22:59:00.014Z,31.00
2019-05-20T23:01:28.442Z,33.20
2019-05-20T23:03:56.914Z,39.10
2019-05-20T23:06:25.416Z,39.70
2019-05-20T23:08:53.855Z,39.73
2019-05-20T23:11:22.256Z,41.70
2019-05-20T23:13:50.780Z,40.87
2019-05-20T23:16:19.199Z,39.47
2019-05-20T23:18:47.611Z,40.20
2019-05-20T23:21:16.140Z,41.97
2019-05-20T23:23:44.577Z,40.77
2019-05-20T23:26:12.965Z,40.93
2019-05-20T23:28:41.416Z,44.30
2019-05-20T23:31:09.914Z,40.20
2019-05-20T23:33:38.334Z,42.50
2019-05-20T23:36:06.802Z,41.83
2019-05-20T23:38:35.272Z,39.77
2019-05-20T23:41:03.677Z,41.10
2019-05-20T23:43:32.105Z,34.50
2019-05-20T23:46:00.518Z,34.33
2019-05-20T23:48:29.063Z,29.80
2019-05-20T23:50:57.484Z,27.80
2019-05-20T23:53:25.908Z,27.17
2019-05-20T23:55:54.392Z,28.80
2019-05-20T23:58:22.883Z,27.83
